Time;durP1;ratioP1;P1;durP2;ratioP2;P2;SDS_P1;SDS_P2;PMS_P1;PMS_P2;Temp;Humidity;BMP_temperature;BMP_pressure;BME280_temperature;BME280_humidity;BME280_pressure;Samples;Min_cycle;Max_cycle;Signal;HPM_P1;HPM_P2
2023/09/26 00:01:29;;;;;;;7.88;4.95;;;;;;;;;;6294281;28;20054;-78
2023/09/26 00:04:33;;;;;;;8.30;4.10;;;;;;;;;;6308916;28;20047;-78
2023/09/26 00:07:36;;;;;;;7.07;3.28;;;;;;;;;;6308420;28;20214;-77
2023/09/26 00:10:40;;;;;;;5.85;2.97;;;;;;;;;;6308963;28;20056;-78
2023/09/26 00:13:45;;;;;;;5.85;3.78;;;;;;;;;;6315159;28;20066;-77
2023/09/26 00:16:47;;;;;;;8.55;3.55;;;;;;;;;;6323532;28;20033;-78
2023/09/26 00:19:52;;;;;;;6.97;3.33;;;;;;;;;;6294290;28;20070;-78
2023/09/26 00:22:55;;;;;;;8.55;3.38;;;;;;;;;;6313874;28;20059;-78
2023/09/26 00:25:57;;;;;;;9.05;3.88;;;;;;;;;;6326794;28;20036;-78
2023/09/26 00:29:00;;;;;;;10.02;3.35;;;;;;;;;;6306438;28;20063;-78
2023/09/26 00:32:03;;;;;;;10.50;3.95;;;;;;;;;;6337934;28;20035;-77
2023/09/26 00:35:12;;;;;;;10.52;4.40;;;;;;;;;;6333140;28;20055;-78
2023/09/26 00:38:14;;;;;;;6.30;3.47;;;;;;;;;;6309980;28;20095;-78
2023/09/26 00:41:16;;;;;;;6.57;3.15;;;;;;;;;;6295102;28;20040;-78
2023/09/26 00:44:20;;;;;;;7.65;4.75;;;;;;;;;;6324662;28;20060;-79
2023/09/26 00:47:22;;;;;;;10.05;3.67;;;;;;;;;;6327938;28;20060;-78
2023/09/26 00:50:24;;;;;;;7.95;3.40;;;;;;;;;;6294445;28;20048;-78
2023/09/26 00:53:28;;;;;;;6.47;3.63;;;;;;;;;;6335817;28;20107;-78
2023/09/26 00:56:32;;;;;;;10.07;3.38;;;;;;;;;;6326709;28;20088;-76
2023/09/26 00:59:37;;;;;;;9.10;3.85;;;;;;;;;;6325376;28;20104;-76
2023/09/26 01:02:40;;;;;;;9.77;4.13;;;;;;;;;;6303661;28;20040;-78
2023/09/26 01:05:42;;;;;;;9.38;3.00;;;;;;;;;;6292995;28;20627;-77
2023/09/26 01:08:45;;;;;;;9.05;3.85;;;;;;;;;;6287200;28;20095;-77
2023/09/26 01:11:47;;;;;;;8.70;3.10;;;;;;;;;;6305625;28;20102;-78
2023/09/26 01:14:50;;;;;;;11.05;3.40;;;;;;;;;;6306755;28;20686;-77
2023/09/26 01:17:52;;;;;;;7.78;2.88;;;;;;;;;;6327175;28;20048;-77
2023/09/26 01:20:55;;;;;;;7.03;2.92;;;;;;;;;;6313272;28;20051;-76
2023/09/26 01:23:58;;;;;;;15.80;4.07;;;;;;;;;;6339333;28;20111;-78
2023/09/26 01:27:01;;;;;;;7.00;3.72;;;;;;;;;;6335154;28;20141;-78
2023/09/26 01:30:05;;;;;;;12.90;4.03;;;;;;;;;;6309196;28;20036;-78
2023/09/26 01:33:11;;;;;;;7.25;3.22;;;;;;;;;;6328625;28;20047;-78
2023/09/26 01:36:17;;;;;;;8.07;3.78;;;;;;;;;;6332188;28;20028;-77
2023/09/26 01:39:19;;;;;;;9.60;4.05;;;;;;;;;;6298409;28;20040;-78
2023/09/26 01:42:22;;;;;;;13.82;4.07;;;;;;;;;;6340572;28;20165;-77
2023/09/26 01:45:24;;;;;;;11.15;3.97;;;;;;;;;;6323407;28;20032;-76
2023/09/26 01:48:26;;;;;;;10.45;4.07;;;;;;;;;;6326968;28;20051;-77
2023/09/26 01:51:29;;;;;;;10.52;3.90;;;;;;;;;;6316634;28;20051;-77
2023/09/26 01:54:31;;;;;;;11.77;3.80;;;;;;;;;;6295498;28;20042;-76
2023/09/26 01:57:33;;;;;;;14.98;5.60;;;;;;;;;;6329057;28;20047;-76
2023/09/26 02:00:37;;;;;;;14.50;5.45;;;;;;;;;;6268829;28;20047;-76
2023/09/26 02:03:41;;;;;;;9.45;5.80;;;;;;;;;;6319846;28;20086;-78
2023/09/26 02:06:44;;;;;;;9.35;4.32;;;;;;;;;;6335124;28;20108;-78
2023/09/26 02:09:48;;;;;;;10.23;5.28;;;;;;;;;;6298209;28;20032;-77
2023/09/26 02:12:51;;;;;;;11.57;4.30;;;;;;;;;;6305065;28;20117;-77
2023/09/26 02:15:54;;;;;;;9.50;5.35;;;;;;;;;;6324852;28;20107;-76
2023/09/26 02:18:58;;;;;;;12.50;4.60;;;;;;;;;;6322540;28;20028;-77
2023/09/26 02:22:02;;;;;;;15.02;5.82;;;;;;;;;;6329398;28;20052;-77
2023/09/26 02:25:05;;;;;;;10.55;5.32;;;;;;;;;;6299175;28;20067;-79
2023/09/26 02:28:08;;;;;;;6.80;4.78;;;;;;;;;;6346776;28;20052;-78
2023/09/26 02:31:16;;;;;;;8.98;4.70;;;;;;;;;;6318514;28;20033;-77
2023/09/26 02:34:19;;;;;;;8.77;4.80;;;;;;;;;;6310949;28;20048;-77
2023/09/26 02:37:21;;;;;;;13.23;5.97;;;;;;;;;;6330606;28;20063;-77
2023/09/26 02:40:24;;;;;;;9.15;5.78;;;;;;;;;;6330128;28;20046;-78
2023/09/26 02:43:27;;;;;;;11.23;4.63;;;;;;;;;;6311540;28;20044;-77
2023/09/26 02:46:29;;;;;;;10.52;4.90;;;;;;;;;;6292454;28;20044;-77
2023/09/26 02:49:33;;;;;;;13.98;5.13;;;;;;;;;;6319921;28;20040;-77
2023/09/26 02:52:39;;;;;;;8.52;4.40;;;;;;;;;;6281685;28;20043;-78
2023/09/26 02:55:44;;;;;;;6.25;4.78;;;;;;;;;;6299387;28;20044;-78
2023/09/26 02:58:46;;;;;;;8.82;4.82;;;;;;;;;;6347169;28;20095;-77
2023/09/26 03:01:49;;;;;;;14.85;5.13;;;;;;;;;;6313383;28;20724;-76
2023/09/26 03:04:52;;;;;;;10.85;5.18;;;;;;;;;;6322781;28;20036;-77
2023/09/26 03:07:55;;;;;;;11.25;5.03;;;;;;;;;;6330048;28;20039;-77
2023/09/26 03:10:59;;;;;;;8.35;5.28;;;;;;;;;;6324003;28;20043;-78
2023/09/26 03:14:02;;;;;;;9.32;5.07;;;;;;;;;;6330197;28;20044;-77
2023/09/26 03:17:05;;;;;;;13.50;5.40;;;;;;;;;;6306372;28;20320;-78
2023/09/26 03:20:10;;;;;;;12.43;5.75;;;;;;;;;;6303941;28;20116;-77
2023/09/26 03:23:13;;;;;;;16.52;6.22;;;;;;;;;;6313377;28;20093;-77
2023/09/26 03:26:16;;;;;;;9.00;5.53;;;;;;;;;;6302557;28;20342;-78
2023/09/26 03:29:19;;;;;;;11.57;5.68;;;;;;;;;;6301608;28;20059;-77
2023/09/26 03:32:24;;;;;;;14.85;6.07;;;;;;;;;;6309247;28;20040;-79
2023/09/26 03:35:26;;;;;;;11.85;5.35;;;;;;;;;;6268739;28;20044;-76
2023/09/26 03:38:30;;;;;;;9.63;5.85;;;;;;;;;;6305738;28;20048;-75
2023/09/26 03:41:32;;;;;;;9.50;5.60;;;;;;;;;;6284656;28;20055;-75
2023/09/26 03:44:34;;;;;;;13.23;7.25;;;;;;;;;;6300555;28;20620;-75
2023/09/26 03:47:36;;;;;;;11.23;5.75;;;;;;;;;;6307693;28;20044;-75
2023/09/26 03:50:40;;;;;;;8.35;5.32;;;;;;;;;;6308659;28;20063;-75
2023/09/26 03:53:43;;;;;;;10.55;5.65;;;;;;;;;;6293506;28;20040;-75
2023/09/26 03:56:46;;;;;;;11.77;7.10;;;;;;;;;;6276854;28;20036;-75
2023/09/26 03:59:49;;;;;;;12.82;6.32;;;;;;;;;;6276758;28;20044;-75
2023/09/26 04:02:56;;;;;;;9.32;6.30;;;;;;;;;;6273983;28;20044;-75
2023/09/26 04:05:58;;;;;;;10.23;5.60;;;;;;;;;;6276289;28;20040;-75
2023/09/26 04:09:04;;;;;;;11.73;5.45;;;;;;;;;;6307343;28;20044;-75
2023/09/26 04:12:12;;;;;;;9.05;6.20;;;;;;;;;;6292912;28;20052;-75
2023/09/26 04:15:17;;;;;;;12.30;6.95;;;;;;;;;;6308589;28;20159;-75
2023/09/26 04:18:25;;;;;;;13.45;7.07;;;;;;;;;;6317371;28;20046;-75
2023/09/26 04:21:27;;;;;;;13.00;6.60;;;;;;;;;;6310497;28;20138;-74
2023/09/26 04:24:29;;;;;;;11.85;5.47;;;;;;;;;;6285463;28;20050;-74
2023/09/26 04:27:35;;;;;;;11.68;5.57;;;;;;;;;;6307504;28;20485;-75
2023/09/26 04:30:39;;;;;;;12.52;7.18;;;;;;;;;;6334491;28;20103;-75
2023/09/26 04:33:42;;;;;;;12.27;6.40;;;;;;;;;;6328023;28;20035;-75
2023/09/26 04:36:44;;;;;;;10.82;6.30;;;;;;;;;;6303194;28;20052;-76
2023/09/26 04:39:46;;;;;;;14.23;7.20;;;;;;;;;;6346391;28;20036;-62
2023/09/26 04:42:48;;;;;;;12.10;5.72;;;;;;;;;;6303404;28;20051;-64
2023/09/26 04:45:50;;;;;;;13.52;6.05;;;;;;;;;;6316925;28;20040;-66
2023/09/26 04:48:53;;;;;;;11.63;6.22;;;;;;;;;;6315096;28;20048;-73
2023/09/26 04:51:56;;;;;;;11.85;6.50;;;;;;;;;;6311848;28;20035;-65
2023/09/26 04:54:58;;;;;;;13.25;6.22;;;;;;;;;;6309697;28;20040;-65
2023/09/26 04:58:01;;;;;;;10.25;6.00;;;;;;;;;;6310551;28;20039;-65
2023/09/26 05:01:14;;;;;;;16.08;7.95;;;;;;;;;;6310928;28;20043;-65
2023/09/26 05:04:17;;;;;;;11.13;6.57;;;;;;;;;;6310524;28;20067;-65
2023/09/26 05:07:19;;;;;;;14.98;6.38;;;;;;;;;;6309249;28;20123;-65
2023/09/26 05:10:23;;;;;;;15.55;5.07;;;;;;;;;;6308974;28;20048;-65
2023/09/26 05:13:26;;;;;;;10.20;5.30;;;;;;;;;;6307653;28;20105;-66
2023/09/26 05:16:28;;;;;;;10.13;5.22;;;;;;;;;;6305270;28;20095;-65
2023/09/26 05:19:32;;;;;;;7.90;5.30;;;;;;;;;;6311817;28;20043;-77
2023/09/26 05:22:34;;;;;;;11.60;6.20;;;;;;;;;;6307345;28;20090;-78
2023/09/26 05:25:37;;;;;;;12.35;5.05;;;;;;;;;;6287069;28;20072;-78
2023/09/26 05:28:41;;;;;;;12.50;5.15;;;;;;;;;;6274702;28;20127;-77
2023/09/26 05:31:44;;;;;;;9.27;5.10;;;;;;;;;;6307469;28;20040;-75
2023/09/26 06:13:47;;;;;;;14.55;4.45;;;;;;;;;;6263886;22;20056;-66
2023/09/26 06:16:52;;;;;;;7.70;4.75;;;;;;;;;;6241153;28;20045;-66
2023/09/26 06:19:55;;;;;;;11.23;4.47;;;;;;;;;;6263100;28;20052;-66
2023/09/26 06:22:57;;;;;;;14.13;5.30;;;;;;;;;;6255882;28;20045;-65
2023/09/26 06:26:00;;;;;;;11.73;4.65;;;;;;;;;;6259587;28;20056;-66
2023/09/26 06:29:02;;;;;;;20.40;5.70;;;;;;;;;;6261689;28;20037;-65
2023/09/26 06:32:04;;;;;;;11.75;3.78;;;;;;;;;;6265336;28;20119;-65
2023/09/26 06:35:07;;;;;;;15.65;4.40;;;;;;;;;;6268489;28;20092;-66
2023/09/26 06:38:09;;;;;;;9.93;4.10;;;;;;;;;;6256231;28;20526;-66
2023/09/26 06:41:11;;;;;;;14.10;3.63;;;;;;;;;;6274104;28;20045;-66
2023/09/26 06:44:13;;;;;;;10.98;2.97;;;;;;;;;;6264388;28;20446;-66
2023/09/26 06:47:17;;;;;;;9.02;3.03;;;;;;;;;;6260185;28;20079;-66
2023/09/26 06:50:21;;;;;;;18.67;4.22;;;;;;;;;;6257788;28;20658;-66
2023/09/26 06:53:23;;;;;;;17.58;3.72;;;;;;;;;;6255084;28;20041;-66
2023/09/26 06:56:25;;;;;;;11.35;3.50;;;;;;;;;;6263882;28;20049;-64
2023/09/26 06:59:27;;;;;;;8.57;3.28;;;;;;;;;;6262081;28;20052;-67
2023/09/26 07:02:29;;;;;;;8.32;3.25;;;;;;;;;;6258894;28;20049;-66
2023/09/26 07:05:31;;;;;;;11.80;3.97;;;;;;;;;;6268084;28;20568;-66
2023/09/26 07:08:33;;;;;;;16.02;3.60;;;;;;;;;;6261876;28;20043;-66
2023/09/26 07:11:35;;;;;;;16.27;3.42;;;;;;;;;;6248610;28;20545;-66
2023/09/26 07:14:37;;;;;;;21.02;4.53;;;;;;;;;;6255531;28;20092;-66
2023/09/26 07:17:39;;;;;;;16.58;2.97;;;;;;;;;;6269594;28;20530;-66
2023/09/26 07:20:49;;;;;;;24.15;4.07;;;;;;;;;;6262592;28;20534;-66
2023/09/26 07:23:51;;;;;;;9.90;3.95;;;;;;;;;;6255401;28;20049;-66
2023/09/26 07:26:54;;;;;;;18.67;4.40;;;;;;;;;;6264800;28;20053;-67
2023/09/26 07:29:56;;;;;;;15.75;3.22;;;;;;;;;;6257966;28;20049;-66
2023/09/26 07:32:58;;;;;;;15.60;3.75;;;;;;;;;;6267099;28;20053;-66
2023/09/26 07:36:01;;;;;;;11.02;3.05;;;;;;;;;;6261966;28;20049;-66
2023/09/26 07:39:08;;;;;;;18.23;3.60;;;;;;;;;;6261428;28;20048;-65
2023/09/26 07:42:10;;;;;;;10.30;3.58;;;;;;;;;;6253464;28;20525;-66
2023/09/26 07:45:16;;;;;;;12.77;4.95;;;;;;;;;;6262344;28;20522;-66
2023/09/26 07:48:18;;;;;;;11.10;3.00;;;;;;;;;;6255629;28;20044;-66
2023/09/26 07:51:22;;;;;;;15.93;3.70;;;;;;;;;;6256956;28;20452;-65
2023/09/26 07:54:24;;;;;;;17.45;3.47;;;;;;;;;;6255720;28;20450;-66
2023/09/26 07:57:26;;;;;;;9.60;2.53;;;;;;;;;;6264034;28;20133;-67
2023/09/26 08:00:28;;;;;;;7.05;3.22;;;;;;;;;;6260944;28;20049;-67
2023/09/26 08:03:30;;;;;;;9.05;3.35;;;;;;;;;;6272791;28;20739;-66
2023/09/26 08:06:33;;;;;;;13.57;3.00;;;;;;;;;;6242780;28;20057;-68
2023/09/26 08:09:35;;;;;;;9.48;2.40;;;;;;;;;;6251854;28;20041;-67
2023/09/26 08:12:37;;;;;;;11.05;2.70;;;;;;;;;;6267251;28;20044;-66
2023/09/26 08:15:39;;;;;;;10.05;2.40;;;;;;;;;;6269610;28;20118;-67
2023/09/26 08:18:41;;;;;;;12.10;3.08;;;;;;;;;;6265167;28;20044;-65
2023/09/26 08:21:44;;;;;;;13.07;2.72;;;;;;;;;;6259133;28;20055;-67
2023/09/26 08:24:47;;;;;;;12.07;4.22;;;;;;;;;;6263518;28;20045;-67
2023/09/26 08:27:49;;;;;;;20.92;4.28;;;;;;;;;;6258719;28;20064;-67
2023/09/26 08:30:56;;;;;;;9.68;2.55;;;;;;;;;;6263182;28;20057;-67
2023/09/26 08:33:58;;;;;;;10.25;2.50;;;;;;;;;;6245685;28;20049;-66
2023/09/26 08:37:01;;;;;;;7.25;2.53;;;;;;;;;;6253371;28;20045;-67
2023/09/26 08:40:08;;;;;;;11.10;3.08;;;;;;;;;;6264494;28;20041;-68
2023/09/26 08:43:12;;;;;;;30.88;4.68;;;;;;;;;;6265081;28;20182;-68
2023/09/26 08:46:15;;;;;;;8.63;2.17;;;;;;;;;;6257921;28;20586;-67
2023/09/26 08:49:18;;;;;;;14.10;2.83;;;;;;;;;;6259478;28;20051;-67
2023/09/26 08:52:22;;;;;;;18.17;3.38;;;;;;;;;;6256609;28;20045;-67
2023/09/26 08:55:24;;;;;;;8.32;2.63;;;;;;;;;;6254173;28;20119;-68
2023/09/26 08:58:27;;;;;;;7.65;2.90;;;;;;;;;;6242353;28;20053;-67
2023/09/26 09:01:30;;;;;;;16.50;2.97;;;;;;;;;;6246444;28;20045;-67
2023/09/26 09:04:33;;;;;;;8.35;2.95;;;;;;;;;;6237018;28;20041;-67
2023/09/26 09:07:38;;;;;;;6.65;2.95;;;;;;;;;;6260127;28;20045;-66
2023/09/26 09:10:54;;;;;;;10.05;2.63;;;;;;;;;;6257755;28;20059;-66
2023/09/26 09:13:56;;;;;;;12.55;2.35;;;;;;;;;;6263036;28;20120;-67
2023/09/26 09:16:58;;;;;;;11.23;3.60;;;;;;;;;;6256820;28;20056;-67
2023/09/26 09:20:01;;;;;;;6.65;2.63;;;;;;;;;;6246844;28;20083;-67
2023/09/26 09:23:07;;;;;;;19.27;3.38;;;;;;;;;;6249420;28;20037;-67
2023/09/26 09:26:12;;;;;;;11.70;3.13;;;;;;;;;;6262980;28;20106;-66
2023/09/26 09:29:22;;;;;;;13.52;2.33;;;;;;;;;;6265628;28;20053;-67
2023/09/26 09:32:24;;;;;;;13.38;2.88;;;;;;;;;;6260760;28;20428;-67
2023/09/26 09:35:26;;;;;;;10.95;2.78;;;;;;;;;;6251837;28;20041;-67
2023/09/26 09:38:32;;;;;;;11.70;2.90;;;;;;;;;;6268353;28;20060;-67
2023/09/26 09:41:39;;;;;;;7.22;2.70;;;;;;;;;;6245399;28;20041;-66
2023/09/26 09:44:41;;;;;;;6.32;2.83;;;;;;;;;;6262777;28;20052;-67
2023/09/26 09:47:45;;;;;;;9.88;2.60;;;;;;;;;;6265884;28;20053;-67
2023/09/26 09:50:49;;;;;;;14.45;2.65;;;;;;;;;;6261574;28;20124;-66
2023/09/26 09:53:55;;;;;;;11.25;3.15;;;;;;;;;;6250881;28;20550;-66
2023/09/26 09:56:58;;;;;;;8.50;2.40;;;;;;;;;;6263140;28;20127;-66
2023/09/26 10:00:01;;;;;;;13.48;2.72;;;;;;;;;;6244408;28;20481;-66
2023/09/26 10:03:05;;;;;;;12.82;2.75;;;;;;;;;;6258294;28;20445;-66
2023/09/26 10:06:08;;;;;;;11.75;3.17;;;;;;;;;;6246993;28;20053;-67
2023/09/26 10:09:12;;;;;;;11.60;3.15;;;;;;;;;;6259209;28;20510;-66
2023/09/26 10:12:15;;;;;;;12.40;2.67;;;;;;;;;;6246262;28;20584;-66
2023/09/26 10:15:17;;;;;;;9.02;2.40;;;;;;;;;;6265442;28;20819;-66
2023/09/26 10:18:19;;;;;;;17.20;3.38;;;;;;;;;;6267751;28;20653;-66
2023/09/26 10:21:24;;;;;;;8.48;2.58;;;;;;;;;;6261034;28;20053;-66
2023/09/26 10:24:26;;;;;;;14.90;2.88;;;;;;;;;;6266241;28;20040;-66
2023/09/26 10:27:31;;;;;;;13.88;3.08;;;;;;;;;;6252871;28;20042;-68
2023/09/26 10:30:44;;;;;;;14.32;3.00;;;;;;;;;;6259758;28;20041;-66
2023/09/26 10:33:54;;;;;;;9.77;3.05;;;;;;;;;;6259860;28;20132;-66
2023/09/26 10:36:56;;;;;;;11.50;2.97;;;;;;;;;;6260418;28;20102;-65
2023/09/26 10:39:58;;;;;;;7.75;2.50;;;;;;;;;;6259412;28;20573;-66
2023/09/26 10:43:02;;;;;;;8.43;2.83;;;;;;;;;;6263948;28;20048;-67
2023/09/26 10:46:25;;;;;;;8.63;3.20;;;;;;;;;;6263171;28;20036;-66
2023/09/26 10:49:27;;;;;;;9.32;2.50;;;;;;;;;;6262471;28;20140;-67
2023/09/26 10:52:30;;;;;;;7.93;2.92;;;;;;;;;;6239438;28;20700;-66
2023/09/26 10:55:33;;;;;;;14.23;2.55;;;;;;;;;;6253771;28;20530;-66
2023/09/26 10:58:35;;;;;;;8.15;2.95;;;;;;;;;;6261280;28;20049;-66
2023/09/26 11:01:38;;;;;;;11.40;2.55;;;;;;;;;;6256654;28;20048;-66
2023/09/26 11:04:41;;;;;;;8.57;2.92;;;;;;;;;;6258640;28;20041;-66
2023/09/26 11:07:44;;;;;;;8.32;2.85;;;;;;;;;;6259625;28;20194;-66
2023/09/26 11:11:08;;;;;;;8.15;3.17;;;;;;;;;;6258558;28;20052;-66
2023/09/26 11:14:10;;;;;;;10.25;2.63;;;;;;;;;;6261716;28;20044;-66
2023/09/26 11:17:14;;;;;;;9.93;3.25;;;;;;;;;;6245130;28;20056;-67
2023/09/26 11:20:16;;;;;;;13.07;3.30;;;;;;;;;;6256262;28;20081;-67
2023/09/26 11:23:36;;;;;;;11.25;4.03;;;;;;;;;;6257394;28;20041;-66
2023/09/26 11:26:39;;;;;;;13.85;3.78;;;;;;;;;;6230205;28;20042;-66
2023/09/26 11:29:41;;;;;;;9.50;2.97;;;;;;;;;;6218724;28;20046;-66
2023/09/26 11:32:50;;;;;;;9.73;2.65;;;;;;;;;;6264773;28;20049;-66
2023/09/26 11:35:53;;;;;;;10.25;3.50;;;;;;;;;;6256562;28;20485;-66
2023/09/26 11:38:59;;;;;;;7.82;2.65;;;;;;;;;;6251146;28;20037;-66
2023/09/26 11:42:05;;;;;;;10.75;3.22;;;;;;;;;;6260291;28;20091;-66
2023/09/26 11:45:08;;;;;;;10.60;2.67;;;;;;;;;;6264517;28;20053;-67
2023/09/26 11:48:10;;;;;;;9.20;2.60;;;;;;;;;;6248439;28;20047;-67
2023/09/26 11:51:13;;;;;;;10.00;2.92;;;;;;;;;;6267512;28;20045;-67
2023/09/26 11:54:16;;;;;;;14.18;4.03;;;;;;;;;;6258146;28;20056;-67
2023/09/26 11:57:18;;;;;;;9.90;3.03;;;;;;;;;;6256906;28;20423;-67
2023/09/26 12:00:21;;;;;;;9.63;2.70;;;;;;;;;;6266400;28;20176;-67
2023/09/26 12:03:23;;;;;;;8.48;2.72;;;;;;;;;;6260789;28;20206;-67
2023/09/26 12:06:25;;;;;;;11.82;2.40;;;;;;;;;;6259408;28;20045;-67
2023/09/26 12:09:30;;;;;;;8.65;2.45;;;;;;;;;;6259597;28;20041;-67
2023/09/26 12:12:32;;;;;;;18.20;3.00;;;;;;;;;;6267637;28;20055;-67
2023/09/26 12:15:34;;;;;;;26.15;4.15;;;;;;;;;;6263731;28;20044;-68
2023/09/26 12:18:36;;;;;;;18.95;3.60;;;;;;;;;;6262386;28;20044;-68
2023/09/26 12:21:38;;;;;;;139.93;12.65;;;;;;;;;;6257000;28;20439;-68
2023/09/26 12:24:40;;;;;;;189.20;20.73;;;;;;;;;;6253884;28;20052;-69
2023/09/26 12:27:42;;;;;;;80.13;9.57;;;;;;;;;;6234890;28;20056;-68
2023/09/26 12:30:45;;;;;;;205.18;19.88;;;;;;;;;;6261259;28;20045;-68
2023/09/26 12:33:47;;;;;;;38.80;7.75;;;;;;;;;;6263946;28;20818;-66
2023/09/26 12:36:49;;;;;;;29.00;3.80;;;;;;;;;;6263816;28;20049;-68
2023/09/26 12:39:52;;;;;;;11.70;3.42;;;;;;;;;;6256502;28;20514;-68
2023/09/26 12:42:58;;;;;;;14.98;3.10;;;;;;;;;;6254949;28;20048;-67
2023/09/26 12:46:00;;;;;;;10.70;3.85;;;;;;;;;;6241749;28;20483;-68
2023/09/26 12:49:02;;;;;;;11.35;3.15;;;;;;;;;;6266294;28;20433;-67
2023/09/26 12:52:04;;;;;;;17.05;3.33;;;;;;;;;;6234484;28;20045;-67
2023/09/26 12:55:08;;;;;;;9.25;2.88;;;;;;;;;;6220915;28;20049;-67
2023/09/26 12:58:10;;;;;;;10.65;2.85;;;;;;;;;;6258761;28;20041;-68
2023/09/26 13:01:12;;;;;;;18.20;3.15;;;;;;;;;;6265954;28;20147;-69
2023/09/26 13:04:14;;;;;;;10.90;4.05;;;;;;;;;;6261748;28;20449;-69
2023/09/26 13:07:16;;;;;;;10.88;2.47;;;;;;;;;;6265622;28;20051;-66
2023/09/26 13:10:18;;;;;;;9.00;3.08;;;;;;;;;;6257410;28;20045;-67
2023/09/26 13:13:21;;;;;;;15.32;2.40;;;;;;;;;;6261993;28;20099;-67
2023/09/26 13:16:23;;;;;;;11.57;2.95;;;;;;;;;;6256692;28;20045;-67
2023/09/26 13:19:25;;;;;;;13.50;3.25;;;;;;;;;;6251117;28;20053;-67
2023/09/26 13:22:27;;;;;;;12.25;2.88;;;;;;;;;;6259935;28;20931;-67
2023/09/26 13:25:29;;;;;;;8.55;2.60;;;;;;;;;;6254758;28;20052;-67
2023/09/26 13:28:31;;;;;;;13.68;2.75;;;;;;;;;;6262186;28;20037;-67
2023/09/26 13:31:33;;;;;;;8.45;2.30;;;;;;;;;;6270359;28;20049;-67
2023/09/26 13:34:39;;;;;;;11.23;3.15;;;;;;;;;;6244318;28;20049;-67
2023/09/26 13:37:41;;;;;;;6.75;2.83;;;;;;;;;;6257816;28;20182;-69
2023/09/26 13:40:44;;;;;;;10.07;2.92;;;;;;;;;;6250379;28;20050;-68
2023/09/26 13:43:46;;;;;;;13.18;2.92;;;;;;;;;;6253674;28;20075;-67
2023/09/26 13:46:48;;;;;;;11.80;2.95;;;;;;;;;;6249301;28;20064;-68
2023/09/26 13:49:51;;;;;;;8.10;2.28;;;;;;;;;;6250150;28;20056;-67
2023/09/26 13:52:53;;;;;;;10.65;2.70;;;;;;;;;;6250711;28;20136;-67
2023/09/26 13:55:55;;;;;;;12.57;3.03;;;;;;;;;;6258626;28;20041;-68
2023/09/26 13:58:58;;;;;;;14.82;3.28;;;;;;;;;;6250385;28;20045;-68
2023/09/26 14:02:00;;;;;;;12.00;3.58;;;;;;;;;;6234723;28;20052;-67
2023/09/26 14:05:04;;;;;;;13.55;3.45;;;;;;;;;;6257316;28;20045;-68
2023/09/26 14:08:21;;;;;;;10.95;3.17;;;;;;;;;;6247337;28;20037;-68
2023/09/26 14:11:23;;;;;;;11.10;3.80;;;;;;;;;;6251725;28;21066;-68
2023/09/26 14:14:25;;;;;;;8.85;3.53;;;;;;;;;;6263619;28;20101;-67
2023/09/26 14:17:27;;;;;;;13.43;2.80;;;;;;;;;;6255374;28;20045;-67
2023/09/26 14:20:32;;;;;;;11.18;2.95;;;;;;;;;;6254346;28;20633;-67
2023/09/26 14:23:34;;;;;;;10.82;3.25;;;;;;;;;;6256471;28;20052;-68
2023/09/26 14:26:36;;;;;;;14.80;3.15;;;;;;;;;;6258232;28;20783;-68
2023/09/26 14:29:38;;;;;;;13.30;2.88;;;;;;;;;;6263579;28;20052;-68
2023/09/26 14:32:41;;;;;;;10.40;4.15;;;;;;;;;;6260680;28;20123;-68
2023/09/26 14:35:44;;;;;;;10.15;2.40;;;;;;;;;;6253506;28;20049;-68
2023/09/26 14:38:46;;;;;;;11.15;3.50;;;;;;;;;;6248766;28;20049;-68
2023/09/26 14:41:48;;;;;;;15.07;3.22;;;;;;;;;;6259030;28;20130;-68
2023/09/26 14:44:50;;;;;;;11.88;3.10;;;;;;;;;;6260673;28;20052;-68
2023/09/26 14:47:52;;;;;;;8.38;3.03;;;;;;;;;;6252767;28;20060;-68
2023/09/26 14:50:56;;;;;;;13.05;3.45;;;;;;;;;;6251499;28;20088;-69
2023/09/26 14:53:59;;;;;;;9.80;4.15;;;;;;;;;;6262588;28;20221;-68
2023/09/26 14:57:01;;;;;;;8.00;3.20;;;;;;;;;;6258000;28;20041;-67
2023/09/26 15:00:03;;;;;;;11.32;3.10;;;;;;;;;;6260516;28;20060;-68
2023/09/26 15:03:06;;;;;;;15.43;3.25;;;;;;;;;;6257576;28;20055;-67
2023/09/26 15:06:11;;;;;;;6.78;3.35;;;;;;;;;;6253995;28;20052;-68
2023/09/26 15:09:13;;;;;;;11.00;2.95;;;;;;;;;;6255648;28;20049;-68
2023/09/26 15:12:15;;;;;;;6.85;2.80;;;;;;;;;;6253530;28;20048;-68
2023/09/26 15:15:17;;;;;;;11.45;3.33;;;;;;;;;;6259739;28;20049;-68
2023/09/26 15:18:19;;;;;;;9.80;3.22;;;;;;;;;;6264689;28;20048;-68
2023/09/26 15:21:21;;;;;;;8.80;3.55;;;;;;;;;;6260976;28;20572;-68
2023/09/26 15:24:23;;;;;;;10.75;3.25;;;;;;;;;;6267068;28;20144;-68
2023/09/26 15:27:25;;;;;;;7.78;3.00;;;;;;;;;;6265361;28;20117;-68
2023/09/26 15:30:28;;;;;;;10.70;2.58;;;;;;;;;;6266565;28;20044;-68
2023/09/26 15:33:32;;;;;;;11.82;2.80;;;;;;;;;;6243082;28;20648;-68
2023/09/26 15:36:34;;;;;;;8.48;3.13;;;;;;;;;;6258610;28;20557;-68
2023/09/26 15:39:36;;;;;;;8.40;3.20;;;;;;;;;;6259315;28;20044;-68
2023/09/26 15:42:38;;;;;;;7.90;2.83;;;;;;;;;;6259037;28;20193;-68
2023/09/26 15:45:40;;;;;;;8.98;3.00;;;;;;;;;;6258309;28;20040;-68
2023/09/26 15:48:42;;;;;;;6.10;2.63;;;;;;;;;;6260417;28;20049;-68
2023/09/26 15:51:44;;;;;;;11.20;3.00;;;;;;;;;;6263045;28;20106;-68
2023/09/26 15:54:46;;;;;;;8.68;3.33;;;;;;;;;;6258196;28;20056;-69
2023/09/26 15:57:48;;;;;;;7.70;2.95;;;;;;;;;;6259022;28;20060;-67
2023/09/26 16:00:50;;;;;;;9.27;2.58;;;;;;;;;;6258257;28;20573;-68
2023/09/26 16:03:52;;;;;;;8.52;3.17;;;;;;;;;;6254220;28;20435;-68
2023/09/26 16:06:55;;;;;;;6.15;2.72;;;;;;;;;;6263859;28;20522;-68
2023/09/26 16:09:57;;;;;;;6.55;3.10;;;;;;;;;;6239892;28;20053;-68
2023/09/26 16:12:59;;;;;;;9.02;3.15;;;;;;;;;;6249823;28;20498;-68
2023/09/26 16:16:12;;;;;;;8.20;3.22;;;;;;;;;;6248100;28;20053;-68
2023/09/26 16:19:15;;;;;;;10.15;3.75;;;;;;;;;;6259209;28;20522;-68
2023/09/26 16:22:19;;;;;;;9.23;3.30;;;;;;;;;;6256607;28;20045;-68
2023/09/26 16:25:21;;;;;;;9.20;3.42;;;;;;;;;;6255932;28;20056;-68
2023/09/26 16:28:23;;;;;;;7.43;3.53;;;;;;;;;;6256485;28;20491;-68
2023/09/26 16:31:25;;;;;;;9.18;3.53;;;;;;;;;;6248421;28;20044;-68
2023/09/26 16:34:27;;;;;;;11.95;3.30;;;;;;;;;;6258671;28;20049;-68
2023/09/26 16:37:30;;;;;;;12.45;3.85;;;;;;;;;;6256059;28;20052;-68
2023/09/26 16:40:33;;;;;;;8.00;3.35;;;;;;;;;;6253747;28;20094;-68
2023/09/26 16:43:35;;;;;;;9.65;4.20;;;;;;;;;;6263302;28;20049;-68
2023/09/26 16:46:37;;;;;;;9.60;3.10;;;;;;;;;;6259724;28;20044;-68
2023/09/26 16:49:39;;;;;;;11.77;3.47;;;;;;;;;;6259552;28;20093;-68
2023/09/26 16:52:41;;;;;;;48.53;23.90;;;;;;;;;;6256709;28;20730;-67
2023/09/26 16:55:43;;;;;;;8.48;4.25;;;;;;;;;;6260333;28;20048;-68
2023/09/26 16:58:45;;;;;;;11.00;3.85;;;;;;;;;;6259076;28;20056;-68
2023/09/26 17:01:48;;;;;;;9.00;3.22;;;;;;;;;;6265855;28;20632;-68
2023/09/26 17:04:50;;;;;;;11.90;5.10;;;;;;;;;;6239928;28;20614;-67
2023/09/26 17:07:52;;;;;;;9.68;4.40;;;;;;;;;;6257169;28;20050;-68
2023/09/26 17:10:54;;;;;;;10.35;4.20;;;;;;;;;;6262630;28;20068;-67
2023/09/26 17:13:56;;;;;;;9.98;3.88;;;;;;;;;;6236054;28;20048;-66
2023/09/26 17:17:00;;;;;;;8.32;3.90;;;;;;;;;;6257774;28;20048;-66
2023/09/26 17:20:04;;;;;;;7.80;3.83;;;;;;;;;;6254469;28;20103;-67
2023/09/26 17:23:08;;;;;;;7.28;3.35;;;;;;;;;;6258486;28;20079;-67
2023/09/26 17:26:10;;;;;;;10.07;4.28;;;;;;;;;;6251518;28;20060;-67
2023/09/26 17:29:13;;;;;;;9.90;3.65;;;;;;;;;;6256526;28;20049;-67
2023/09/26 17:32:15;;;;;;;7.93;3.45;;;;;;;;;;6251335;28;20059;-67
2023/09/26 17:35:17;;;;;;;10.52;3.33;;;;;;;;;;6253726;28;20055;-68
2023/09/26 17:38:19;;;;;;;8.73;3.55;;;;;;;;;;6249634;28;20049;-67
2023/09/26 17:41:22;;;;;;;9.23;3.83;;;;;;;;;;6251755;28;20045;-66
2023/09/26 17:44:24;;;;;;;12.73;4.38;;;;;;;;;;6254001;28;20052;-67
2023/09/26 17:47:28;;;;;;;10.82;3.88;;;;;;;;;;6250352;28;20046;-67
2023/09/26 17:50:30;;;;;;;;;;;;;;;;;;6260505;28;20037;-67
2023/09/26 17:53:32;;;;;;;8.48;3.58;;;;;;;;;;6235938;28;19920;-67
2023/09/26 17:56:34;;;;;;;8.55;3.88;;;;;;;;;;6254391;28;20045;-67
2023/09/26 17:59:38;;;;;;;11.85;4.15;;;;;;;;;;6252981;28;20040;-67
2023/09/26 18:02:42;;;;;;;9.85;3.85;;;;;;;;;;6253899;28;20046;-68
2023/09/26 18:05:44;;;;;;;13.05;4.32;;;;;;;;;;6257669;28;20888;-66
2023/09/26 18:08:46;;;;;;;10.60;4.05;;;;;;;;;;6254261;28;20749;-70
2023/09/26 18:11:48;;;;;;;11.18;3.83;;;;;;;;;;6260027;28;20053;-67
2023/09/26 18:14:51;;;;;;;11.38;4.10;;;;;;;;;;6254037;28;20618;-67
2023/09/26 18:17:53;;;;;;;9.27;3.83;;;;;;;;;;6240663;28;20760;-69
2023/09/26 18:20:55;;;;;;;7.80;3.63;;;;;;;;;;6256063;28;20042;-68
2023/09/26 18:23:57;;;;;;;9.35;3.50;;;;;;;;;;6251841;28;20049;-67
2023/09/26 18:26:59;;;;;;;12.07;3.42;;;;;;;;;;6252330;28;20136;-68
2023/09/26 18:30:01;;;;;;;11.15;3.60;;;;;;;;;;6251883;28;20218;-68
2023/09/26 18:33:04;;;;;;;16.60;5.22;;;;;;;;;;6236182;28;20541;-70
2023/09/26 18:36:07;;;;;;;8.27;4.22;;;;;;;;;;6189513;28;20068;-70
2023/09/26 18:39:11;;;;;;;9.10;3.63;;;;;;;;;;6211337;28;20174;-70
2023/09/26 18:42:13;;;;;;;7.13;3.45;;;;;;;;;;6235855;28;20037;-68
2023/09/26 18:45:15;;;;;;;9.75;4.32;;;;;;;;;;6223027;28;20069;-68
2023/09/26 18:48:19;;;;;;;11.93;3.42;;;;;;;;;;6240474;28;20053;-68